windsock image

Welcome to Bigfield Strip.

anemometer image
     

 Help for dials.  
 
Local Met:

Wind:   
10 Min average:  
355 ° / 5.9 kts (8.7)
 / 3.6

Temperature:  
9.2°C C
Dew Point:  
7.7°C C
QNH:  
Trend:  
1022.3 mb mb
+0.5mb/hr
BigField Strip. This image updates approximately every minute, it can have a two minute delay.  
 

Humidity:  
90 %
Sunrise:   07:52z
Sunset:   16:40z
Updated:  
  UTC
 
   More met info, trends, radar, history etc. available here   

LUTON Metar   EGGW 260950Z 30010KT 9999 FEW012 BKN031 08/07 Q1021 RERA REDZ
 
  TAF   2015/01/26 08:06 TAF AMD EGGW 260859Z 2608/2706 26016KT 9999 BKN006 TEMPO 2608/2610 3000 DZ BECMG 2609/2612 32012KT SCT025 BECMG 2703/2706 26007KT
 
BENSON Metar   EGUB 260950Z 29006KT 9999 BKN010 09/08 Q1022 GRN BECMG FEW010 BLU
 
  TAF   2015/01/26 09:03 TAF EGUB 260740Z 2609/2618 29010KT 9999 BKN010 BECMG 2609/2611 FEW025
 
Big Field view 1 icon   Big Field view 2 icon   Big Field view 3 icon   Chart AL3a in PDF icon   Chart AL3a in Word icon

WARNING:
This information is provided by the Airstrip unofficial weather station, DO NOT depend on the data provided here for any purpose.
This page is updated for latest Metars & TAF's every 5 minutes. Refresh the browser to check for the lastest.
Page designed for a minimum browser size of 1024x768.
© Copyright 2015 BigField Strip. This page auto generated 10:21 UTC - 26/01/2015   Contact Us
Valid HTML 4.01 Transitional     Windows uptime: 0 Days 7 Hours 49 Minutes 25 Seconds    WD started: 02:38 26/01/15    Free memory: 1547MB     Valid CSS!